Time;durP1;ratioP1;P1;durP2;ratioP2;P2;SDS_P1;SDS_P2;PMS_P1;PMS_P2;Temp;Humidity;BMP_temperature;BMP_pressure;BME280_temperature;BME280_humidity;BME280_pressure;Samples;Min_cycle;Max_cycle;Signal;HPM_P1;HPM_P2
2022/03/25 00:01:58;;;;;;;1328.68;150.45;;;;;;;;;;5096507;28;20178;-65
2022/03/25 00:04:24;;;;;;;1161.45;146.48;;;;;;;;;;5098658;28;20036;-66
2022/03/25 00:06:50;;;;;;;914.92;126.28;;;;;;;;;;5103745;28;20043;-66
2022/03/25 00:09:16;;;;;;;1228.55;152.98;;;;;;;;;;5098287;28;20381;-66
2022/03/25 00:11:42;;;;;;;1641.80;180.32;;;;;;;;;;5108841;28;20044;-66
2022/03/25 00:14:11;;;;;;;739.20;114.22;;;;;;;;;;5111368;28;20054;-65
2022/03/25 00:16:37;;;;;;;963.20;136.38;;;;;;;;;;5126353;28;20047;-66
2022/03/25 00:19:06;;;;;;;911.28;131.93;;;;;;;;;;5113008;28;20048;-66
2022/03/25 00:21:32;;;;;;;813.20;122.47;;;;;;;;;;5112838;28;20031;-65
2022/03/25 00:23:58;;;;;;;625.13;110.78;;;;;;;;;;5092702;28;20040;-66
2022/03/25 00:26:24;;;;;;;959.05;136.38;;;;;;;;;;5083956;28;20046;-66
2022/03/25 00:28:50;;;;;;;919.60;133.43;;;;;;;;;;5083955;28;20087;-66
2022/03/25 00:31:16;;;;;;;439.50;101.80;;;;;;;;;;5084025;28;20040;-66
2022/03/25 00:33:43;;;;;;;388.60;100.05;;;;;;;;;;5097098;28;20063;-66
2022/03/25 00:36:10;;;;;;;493.15;108.43;;;;;;;;;;5105085;28;20047;-66
2022/03/25 00:38:36;;;;;;;664.67;120.50;;;;;;;;;;5105362;28;20556;-66
2022/03/25 00:41:06;;;;;;;494.77;104.97;;;;;;;;;;5105317;28;20044;-66
2022/03/25 00:43:34;;;;;;;400.25;99.05;;;;;;;;;;5103408;28;20177;-66
2022/03/25 00:46:00;;;;;;;;;;;;;;;;;;5105806;28;20055;-66
2022/03/25 00:48:27;;;;;;;285.20;85.30;;;;;;;;;;5105388;28;19987;-66
2022/03/25 00:50:54;;;;;;;329.00;91.20;;;;;;;;;;5103380;28;20083;-66
2022/03/25 00:53:20;;;;;;;421.83;95.15;;;;;;;;;;5100739;28;20417;-66
2022/03/25 00:55:46;;;;;;;429.25;93.72;;;;;;;;;;5093121;28;20047;-65
2022/03/25 00:58:14;;;;;;;354.55;91.47;;;;;;;;;;5105026;28;20044;-66
2022/03/25 01:00:41;;;;;;;319.50;89.55;;;;;;;;;;5105051;28;20052;-66
2022/03/25 01:03:08;;;;;;;307.90;88.80;;;;;;;;;;5102542;28;20056;-65
2022/03/25 01:05:34;;;;;;;251.20;81.78;;;;;;;;;;5084818;28;20067;-64
2022/03/25 01:08:00;;;;;;;304.75;88.05;;;;;;;;;;5084282;28;20054;-65
2022/03/25 01:10:26;;;;;;;375.13;91.40;;;;;;;;;;5084924;28;20048;-66
2022/03/25 01:12:52;;;;;;;532.83;100.63;;;;;;;;;;5084027;28;20510;-65
2022/03/25 01:15:18;;;;;;;503.83;94.35;;;;;;;;;;5104441;28;20407;-66
2022/03/25 01:17:45;;;;;;;304.92;82.32;;;;;;;;;;5104678;28;20044;-66
2022/03/25 01:20:11;;;;;;;339.80;82.07;;;;;;;;;;5104751;28;20077;-65
2022/03/25 01:22:37;;;;;;;372.13;84.25;;;;;;;;;;5104202;28;20293;-66
2022/03/25 01:25:03;;;;;;;273.17;80.65;;;;;;;;;;5086916;28;20140;-66
2022/03/25 01:27:29;;;;;;;523.20;90.25;;;;;;;;;;5084271;28;20050;-66
2022/03/25 01:29:55;;;;;;;548.45;101.47;;;;;;;;;;5084044;28;20055;-67
2022/03/25 01:32:22;;;;;;;284.08;81.82;;;;;;;;;;5084257;28;20049;-66
2022/03/25 01:34:48;;;;;;;220.48;75.63;;;;;;;;;;5099097;28;20503;-65
2022/03/25 01:37:14;;;;;;;242.60;77.55;;;;;;;;;;5103975;28;20160;-66
2022/03/25 01:39:40;;;;;;;196.35;73.35;;;;;;;;;;5104575;28;20051;-66
2022/03/25 01:42:06;;;;;;;257.73;74.00;;;;;;;;;;5085946;28;20108;-66
2022/03/25 01:44:32;;;;;;;253.68;77.60;;;;;;;;;;5084144;28;20047;-67
2022/03/25 01:46:59;;;;;;;312.67;82.38;;;;;;;;;;5090367;28;20052;-67
2022/03/25 01:49:26;;;;;;;228.75;82.82;;;;;;;;;;5104374;28;20123;-67
2022/03/25 01:51:54;;;;;;;217.88;84.20;;;;;;;;;;5087977;28;20420;-65
2022/03/25 01:54:22;;;;;;;277.98;93.78;;;;;;;;;;5083913;28;20048;-67
2022/03/25 01:57:00;;;;;;;307.45;91.97;;;;;;;;;;5083842;28;20046;-66
2022/03/25 01:59:26;;;;;;;404.35;95.88;;;;;;;;;;5083878;28;20053;-67
2022/03/25 02:01:54;;;;;;;364.13;87.80;;;;;;;;;;5097878;28;20055;-66
2022/03/25 02:04:21;;;;;;;291.98;87.18;;;;;;;;;;5104165;28;20056;-66
2022/03/25 02:06:47;;;;;;;251.98;85.25;;;;;;;;;;5103689;28;20112;-66
2022/03/25 02:09:13;;;;;;;256.40;88.03;;;;;;;;;;5104497;28;20036;-67
2022/03/25 02:11:40;;;;;;;271.85;88.00;;;;;;;;;;5091334;28;20072;-67
2022/03/25 02:14:06;;;;;;;272.67;86.80;;;;;;;;;;5083562;28;20048;-67
2022/03/25 02:16:46;;;;;;;262.65;91.10;;;;;;;;;;5083796;28;20040;-66
2022/03/25 02:19:12;;;;;;;305.42;92.47;;;;;;;;;;5083961;28;20128;-66
2022/03/25 02:21:40;;;;;;;245.73;84.93;;;;;;;;;;5095107;28;20054;-66
2022/03/25 02:24:07;;;;;;;294.07;85.93;;;;;;;;;;5104270;28;20048;-67
2022/03/25 02:26:33;;;;;;;334.00;94.38;;;;;;;;;;5103856;28;20357;-67
2022/03/25 02:29:00;;;;;;;284.75;91.05;;;;;;;;;;5102220;28;20128;-67
2022/03/25 02:31:26;;;;;;;284.83;88.88;;;;;;;;;;5093374;28;20044;-67
2022/03/25 02:34:00;;;;;;;328.58;89.35;;;;;;;;;;5083581;28;20052;-67
2022/03/25 02:36:26;;;;;;;353.52;96.68;;;;;;;;;;5084822;28;20049;-67
2022/03/25 02:38:52;;;;;;;970.78;122.97;;;;;;;;;;5101292;28;20052;-66
2022/03/25 02:41:19;;;;;;;456.58;103.93;;;;;;;;;;5083500;28;20050;-66
2022/03/25 02:43:45;;;;;;;669.03;115.63;;;;;;;;;;5083258;28;20101;-66
2022/03/25 02:46:11;;;;;;;340.58;97.95;;;;;;;;;;5083348;28;20032;-67
2022/03/25 02:48:37;;;;;;;363.23;98.35;;;;;;;;;;5083684;28;20125;-66
2022/03/25 02:51:03;;;;;;;301.08;88.78;;;;;;;;;;5083967;28;20159;-66
2022/03/25 02:53:30;;;;;;;291.67;83.60;;;;;;;;;;5083649;28;20048;-68
2022/03/25 02:55:56;;;;;;;341.90;95.03;;;;;;;;;;5083297;28;20466;-67
2022/03/25 02:58:22;;;;;;;403.40;98.90;;;;;;;;;;5083177;28;20087;-67
2022/03/25 03:00:48;;;;;;;363.63;99.32;;;;;;;;;;5084319;28;20116;-66
2022/03/25 03:03:15;;;;;;;390.40;97.20;;;;;;;;;;5085040;28;20052;-67
2022/03/25 03:05:42;;;;;;;346.98;94.88;;;;;;;;;;5087330;28;20052;-67
2022/03/25 03:08:09;;;;;;;302.83;88.97;;;;;;;;;;5086556;28;20052;-67
2022/03/25 03:10:35;;;;;;;383.08;96.97;;;;;;;;;;5099179;28;20297;-67
2022/03/25 03:13:02;;;;;;;292.67;88.85;;;;;;;;;;5106787;28;20044;-65
2022/03/25 03:15:29;;;;;;;262.58;85.00;;;;;;;;;;5107293;28;20083;-67
2022/03/25 03:17:55;;;;;;;276.60;86.22;;;;;;;;;;5107065;28;20075;-66
2022/03/25 03:20:21;;;;;;;271.30;88.88;;;;;;;;;;5095845;28;20139;-67
2022/03/25 03:22:48;;;;;;;310.23;89.68;;;;;;;;;;5086033;28;20049;-67
2022/03/25 03:25:14;;;;;;;280.05;90.03;;;;;;;;;;5086778;28;20040;-66
2022/03/25 03:27:40;;;;;;;289.95;89.03;;;;;;;;;;5100756;28;20044;-67
2022/03/25 03:30:08;;;;;;;266.88;87.70;;;;;;;;;;5097334;28;20079;-65
2022/03/25 03:32:35;;;;;;;346.50;94.25;;;;;;;;;;5086513;28;20048;-65
2022/03/25 03:35:01;;;;;;;292.85;98.75;;;;;;;;;;5086938;28;20043;-66
2022/03/25 03:37:27;;;;;;;323.73;96.70;;;;;;;;;;5085956;28;20056;-67
2022/03/25 03:39:53;;;;;;;308.38;93.88;;;;;;;;;;5096939;28;20126;-66
2022/03/25 03:42:19;;;;;;;298.70;91.65;;;;;;;;;;5106627;28;20040;-66
2022/03/25 03:44:45;;;;;;;301.00;92.78;;;;;;;;;;5105155;28;20067;-66
2022/03/25 03:47:12;;;;;;;276.17;89.45;;;;;;;;;;5106290;28;20047;-66
2022/03/25 03:49:39;;;;;;;258.90;84.68;;;;;;;;;;5102979;28;20055;-66
2022/03/25 03:52:05;;;;;;;256.67;86.53;;;;;;;;;;5090969;28;20065;-66
2022/03/25 03:54:32;;;;;;;242.95;82.70;;;;;;;;;;5086823;28;20425;-66
2022/03/25 03:56:58;;;;;;;242.30;81.03;;;;;;;;;;5086203;28;20048;-67
2022/03/25 03:59:25;;;;;;;211.02;76.63;;;;;;;;;;5086801;28;20040;-67
2022/03/25 04:01:51;;;;;;;220.80;76.47;;;;;;;;;;5106003;28;20139;-65
2022/03/25 04:04:17;;;;;;;224.57;74.88;;;;;;;;;;5106661;28;20055;-66
2022/03/25 04:06:44;;;;;;;179.10;68.25;;;;;;;;;;5105628;28;20048;-66
2022/03/25 04:09:10;;;;;;;208.73;71.05;;;;;;;;;;5106212;28;20044;-66
2022/03/25 04:11:36;;;;;;;183.00;67.78;;;;;;;;;;5087025;28;20048;-66
2022/03/25 04:14:02;;;;;;;172.60;67.10;;;;;;;;;;5085021;28;20093;-66
2022/03/25 04:16:31;;;;;;;167.45;65.30;;;;;;;;;;5088194;28;20071;-66
2022/03/25 04:18:57;;;;;;;147.15;62.45;;;;;;;;;;5106002;28;20044;-66
2022/03/25 04:21:23;;;;;;;173.00;63.85;;;;;;;;;;5105397;28;20403;-66
2022/03/25 04:23:50;;;;;;;174.30;64.47;;;;;;;;;;5087246;28;20458;-67
2022/03/25 04:26:16;;;;;;;163.63;65.03;;;;;;;;;;5085345;28;20496;-66
2022/03/25 04:28:42;;;;;;;167.70;64.93;;;;;;;;;;5085363;28;20044;-66
2022/03/25 04:31:09;;;;;;;152.73;62.33;;;;;;;;;;5102472;28;20048;-66
2022/03/25 04:33:36;;;;;;;210.32;67.07;;;;;;;;;;5105533;28;20495;-67
2022/03/25 04:36:02;;;;;;;198.07;63.83;;;;;;;;;;5101121;28;20052;-67
2022/03/25 04:38:29;;;;;;;172.07;64.78;;;;;;;;;;5085196;28;20586;-67
2022/03/25 04:40:55;;;;;;;173.95;68.20;;;;;;;;;;5085296;28;20044;-67
2022/03/25 04:43:21;;;;;;;176.02;68.57;;;;;;;;;;5084010;28;20378;-65
2022/03/25 04:45:47;;;;;;;158.20;67.25;;;;;;;;;;5085339;28;20056;-65
2022/03/25 04:48:14;;;;;;;152.30;61.47;;;;;;;;;;5085378;28;20036;-66
2022/03/25 04:50:40;;;;;;;157.80;64.93;;;;;;;;;;5084972;28;20055;-65
2022/03/25 04:53:07;;;;;;;173.20;69.32;;;;;;;;;;5095873;28;20054;-66
2022/03/25 04:55:33;;;;;;;147.93;64.95;;;;;;;;;;5105454;28;20067;-66
2022/03/25 04:57:59;;;;;;;170.45;66.72;;;;;;;;;;5103754;28;20040;-67
2022/03/25 05:00:26;;;;;;;157.18;67.78;;;;;;;;;;5104992;28;20051;-65
2022/03/25 05:02:52;;;;;;;158.27;65.75;;;;;;;;;;5105110;28;20044;-66
2022/03/25 05:05:19;;;;;;;148.65;65.15;;;;;;;;;;5105242;28;20048;-67
2022/03/25 05:07:47;;;;;;;147.75;64.15;;;;;;;;;;5104537;28;20059;-66
2022/03/25 05:10:14;;;;;;;148.65;63.22;;;;;;;;;;5104410;28;20155;-67
2022/03/25 05:12:43;;;;;;;181.32;71.47;;;;;;;;;;5105180;28;20048;-67
2022/03/25 05:15:10;;;;;;;162.18;65.95;;;;;;;;;;5102789;28;20040;-66
2022/03/25 05:17:44;;;;;;;184.07;68.95;;;;;;;;;;5092088;28;20039;-66
2022/03/25 05:20:10;;;;;;;189.13;71.65;;;;;;;;;;5096662;28;20047;-67
2022/03/25 05:22:36;;;;;;;180.82;70.07;;;;;;;;;;5102262;28;20051;-67
2022/03/25 05:25:06;;;;;;;183.88;74.03;;;;;;;;;;5104316;28;20044;-67
2022/03/25 05:27:32;;;;;;;213.18;76.88;;;;;;;;;;5088474;28;20052;-66
2022/03/25 05:29:59;;;;;;;238.00;80.75;;;;;;;;;;5088512;28;20074;-66
2022/03/25 05:32:25;;;;;;;218.98;80.72;;;;;;;;;;5085126;28;20098;-66
2022/03/25 05:34:51;;;;;;;243.07;82.28;;;;;;;;;;5104481;28;20051;-67
2022/03/25 05:37:17;;;;;;;238.88;81.60;;;;;;;;;;5103559;28;20050;-67
2022/03/25 05:39:43;;;;;;;243.80;82.53;;;;;;;;;;5084655;28;20044;-67
2022/03/25 05:42:09;;;;;;;290.70;88.70;;;;;;;;;;5083175;28;20062;-67
2022/03/25 05:44:35;;;;;;;278.90;89.30;;;;;;;;;;5094771;28;20404;-67
2022/03/25 05:47:01;;;;;;;290.55;95.72;;;;;;;;;;5104224;28;20075;-67
2022/03/25 05:49:27;;;;;;;281.75;90.50;;;;;;;;;;5093922;28;20059;-67
2022/03/25 05:51:54;;;;;;;261.20;82.10;;;;;;;;;;5103445;28;20052;-65
2022/03/25 05:54:20;;;;;;;236.27;80.57;;;;;;;;;;5094961;28;20507;-66
2022/03/25 05:56:46;;;;;;;223.63;78.18;;;;;;;;;;5087389;28;20070;-66
2022/03/25 05:59:12;;;;;;;210.27;77.03;;;;;;;;;;5098950;28;20067;-66
2022/03/25 06:01:38;;;;;;;213.27;76.82;;;;;;;;;;5103850;28;20060;-66
2022/03/25 06:04:04;;;;;;;209.52;74.13;;;;;;;;;;5103885;28;20044;-66
2022/03/25 06:06:31;;;;;;;233.07;74.50;;;;;;;;;;5103477;28;20094;-66
2022/03/25 06:08:57;;;;;;;203.35;72.10;;;;;;;;;;5103943;28;20075;-67
2022/03/25 06:11:23;;;;;;;205.05;71.35;;;;;;;;;;5104189;28;20040;-67
2022/03/25 06:13:49;;;;;;;182.57;68.80;;;;;;;;;;5102469;28;20048;-66
2022/03/25 06:16:17;;;;;;;161.07;64.45;;;;;;;;;;5103121;28;20145;-66
2022/03/25 06:18:43;;;;;;;188.55;69.53;;;;;;;;;;5103705;28;20051;-66
2022/03/25 06:21:09;;;;;;;195.65;70.38;;;;;;;;;;5103203;28;20044;-66
2022/03/25 06:23:35;;;;;;;178.55;69.20;;;;;;;;;;5104061;28;20403;-66
2022/03/25 06:26:02;;;;;;;172.90;66.25;;;;;;;;;;5104177;28;20044;-66
2022/03/25 06:28:28;;;;;;;199.30;70.45;;;;;;;;;;5103736;28;20070;-66
2022/03/25 06:30:55;;;;;;;204.70;74.82;;;;;;;;;;5103681;28;20078;-67
2022/03/25 06:33:21;;;;;;;195.32;72.72;;;;;;;;;;5096659;28;20044;-66
2022/03/25 06:35:47;;;;;;;172.35;70.90;;;;;;;;;;5083250;28;20049;-66
2022/03/25 06:38:13;;;;;;;183.10;73.45;;;;;;;;;;5084729;28;20036;-66
2022/03/25 06:40:39;;;;;;;197.60;74.35;;;;;;;;;;5087897;28;20213;-66
2022/03/25 06:43:06;;;;;;;184.43;71.65;;;;;;;;;;5087205;28;20076;-66
2022/03/25 06:45:32;;;;;;;174.77;71.55;;;;;;;;;;5087350;28;20045;-67
2022/03/25 06:47:58;;;;;;;168.63;66.97;;;;;;;;;;5103941;28;20530;-67
2022/03/25 06:50:24;;;;;;;136.40;61.20;;;;;;;;;;5107524;28;20078;-66
2022/03/25 06:52:51;;;;;;;155.43;66.38;;;;;;;;;;5103496;28;20044;-66
2022/03/25 06:55:18;;;;;;;151.98;64.38;;;;;;;;;;5095156;28;20107;-68
2022/03/25 06:57:44;;;;;;;144.70;64.30;;;;;;;;;;5106181;28;20048;-66
2022/03/25 07:00:12;;;;;;;137.63;61.50;;;;;;;;;;5107293;28;20043;-66
2022/03/25 07:02:38;;;;;;;;;;;;;;;;;;5107532;28;20103;-66
2022/03/25 07:05:04;;;;;;;133.63;59.15;;;;;;;;;;5107460;28;19966;-67
2022/03/25 07:07:31;;;;;;;123.22;56.72;;;;;;;;;;5107046;28;20040;-67
2022/03/25 07:09:57;;;;;;;110.82;53.60;;;;;;;;;;5107057;28;20078;-66
2022/03/25 07:12:23;;;;;;;120.15;56.83;;;;;;;;;;5107024;28;20052;-67
2022/03/25 07:14:49;;;;;;;112.30;53.55;;;;;;;;;;5103148;28;20130;-66
2022/03/25 07:17:15;;;;;;;97.63;49.45;;;;;;;;;;5086630;28;20041;-66
2022/03/25 07:19:42;;;;;;;95.97;50.72;;;;;;;;;;5086709;28;20080;-66
2022/03/25 07:22:08;;;;;;;88.93;46.30;;;;;;;;;;5086366;28;20040;-66
2022/03/25 07:24:34;;;;;;;83.88;47.35;;;;;;;;;;5086665;28;20100;-67
2022/03/25 07:27:00;;;;;;;73.45;42.60;;;;;;;;;;5086525;28;20044;-68
2022/03/25 07:29:26;;;;;;;72.93;42.72;;;;;;;;;;5086610;28;20052;-67
2022/03/25 07:31:53;;;;;;;75.35;43.00;;;;;;;;;;5086477;28;20174;-67
2022/03/25 07:34:19;;;;;;;77.97;39.88;;;;;;;;;;5086460;28;20071;-68
2022/03/25 07:36:45;;;;;;;68.85;39.13;;;;;;;;;;5087932;28;20064;-70
2022/03/25 07:39:12;;;;;;;68.55;41.13;;;;;;;;;;5086070;28;20046;-67
2022/03/25 07:41:38;;;;;;;64.53;38.15;;;;;;;;;;5086115;28;20100;-67
2022/03/25 07:44:04;;;;;;;64.05;40.28;;;;;;;;;;5086142;28;20036;-67
2022/03/25 07:46:30;;;;;;;58.42;36.63;;;;;;;;;;5098844;28;20036;-67
2022/03/25 07:48:57;;;;;;;53.60;35.80;;;;;;;;;;5095236;28;20338;-68
2022/03/25 07:51:23;;;;;;;57.13;34.78;;;;;;;;;;5104979;28;20099;-67
2022/03/25 07:53:49;;;;;;;58.35;34.80;;;;;;;;;;5096735;28;20069;-67
2022/03/25 07:56:15;;;;;;;58.80;32.90;;;;;;;;;;5105900;28;20161;-68
2022/03/25 07:58:41;;;;;;;54.95;33.63;;;;;;;;;;5085786;28;20040;-68
2022/03/25 08:01:07;;;;;;;47.63;31.50;;;;;;;;;;5099422;28;20060;-67
2022/03/25 08:03:33;;;;;;;55.28;33.85;;;;;;;;;;5107595;28;20099;-67
2022/03/25 08:06:00;;;;;;;57.60;31.80;;;;;;;;;;5105364;28;20490;-68
2022/03/25 08:08:26;;;;;;;54.25;32.83;;;;;;;;;;5106116;28;20051;-69
2022/03/25 08:10:55;;;;;;;50.60;29.83;;;;;;;;;;5098732;28;20098;-68
2022/03/25 08:13:22;;;;;;;44.88;28.70;;;;;;;;;;5085441;28;20129;-67
2022/03/25 08:15:48;;;;;;;40.75;23.63;;;;;;;;;;5085568;28;20041;-67
2022/03/25 08:18:16;;;;;;;37.60;22.73;;;;;;;;;;5092378;28;20573;-66
2022/03/25 08:20:46;;;;;;;37.33;23.55;;;;;;;;;;5103597;28;20060;-67
2022/03/25 08:23:13;;;;;;;38.65;21.73;;;;;;;;;;5095238;28;20565;-67
2022/03/25 08:28:25;;;;;;;32.47;20.05;;;;;;;;;;5105181;28;20046;-66
2022/03/25 08:30:51;;;;;;;32.00;19.45;;;;;;;;;;5103001;28;20044;-66
2022/03/25 08:33:18;;;;;;;36.03;21.02;;;;;;;;;;5107933;28;20052;-67
2022/03/25 08:35:44;;;;;;;32.38;20.92;;;;;;;;;;5111568;28;20036;-68
2022/03/25 08:38:11;;;;;;;43.42;20.17;;;;;;;;;;5115488;28;20048;-68
2022/03/25 08:40:38;;;;;;;32.15;18.17;;;;;;;;;;5115174;28;20327;-67
2022/03/25 08:43:05;;;;;;;38.80;20.85;;;;;;;;;;5118248;28;20551;-68
2022/03/25 08:45:32;;;;;;;36.05;19.85;;;;;;;;;;5105277;28;20178;-67
2022/03/25 08:47:58;;;;;;;32.30;18.35;;;;;;;;;;5105271;28;20052;-68
2022/03/25 08:50:24;;;;;;;29.15;18.58;;;;;;;;;;5105418;28;20040;-66
2022/03/25 08:52:51;;;;;;;36.40;19.35;;;;;;;;;;5087423;28;20053;-68
2022/03/25 08:55:18;;;;;;;33.20;18.73;;;;;;;;;;5084812;28;20052;-68
2022/03/25 08:57:45;;;;;;;28.48;17.77;;;;;;;;;;5084731;28;20083;-67
2022/03/25 09:00:13;;;;;;;36.03;19.17;;;;;;;;;;5084137;28;20528;-68
2022/03/25 09:02:39;;;;;;;31.27;17.25;;;;;;;;;;5084521;28;20060;-67
2022/03/25 09:05:06;;;;;;;29.05;16.30;;;;;;;;;;5091752;28;20058;-67
2022/03/25 09:07:32;;;;;;;29.85;17.70;;;;;;;;;;5099770;28;20052;-68
2022/03/25 09:09:58;;;;;;;31.98;17.98;;;;;;;;;;5104966;28;20036;-68
2022/03/25 09:12:24;;;;;;;31.63;17.95;;;;;;;;;;5103599;28;20052;-68
2022/03/25 09:14:50;;;;;;;32.17;16.40;;;;;;;;;;5102295;28;20125;-67
2022/03/25 09:17:17;;;;;;;27.17;15.77;;;;;;;;;;5104868;28;20119;-66
2022/03/25 09:19:44;;;;;;;26.58;15.27;;;;;;;;;;5104526;28;20054;-66
2022/03/25 09:22:10;;;;;;;29.75;18.15;;;;;;;;;;5103895;28;20067;-67
2022/03/25 09:24:36;;;;;;;27.73;18.08;;;;;;;;;;5104531;28;20044;-67
2022/03/25 09:27:03;;;;;;;30.95;18.27;;;;;;;;;;5103346;28;20048;-67
2022/03/25 09:29:29;;;;;;;41.85;18.50;;;;;;;;;;5092296;28;20479;-66
2022/03/25 09:31:56;;;;;;;29.35;17.55;;;;;;;;;;5102895;28;20131;-66
2022/03/25 09:37:07;;;;;;;28.95;17.52;;;;;;;;;;5103941;28;20077;-66
2022/03/25 09:39:33;;;;;;;24.35;15.38;;;;;;;;;;5103758;28;20040;-67
2022/03/25 09:42:00;;;;;;;26.83;16.52;;;;;;;;;;5098473;28;20196;-67
2022/03/25 09:44:26;;;;;;;37.85;16.27;;;;;;;;;;5104209;28;20036;-66
2022/03/25 09:46:52;;;;;;;28.90;15.70;;;;;;;;;;5104324;28;20052;-66
2022/03/25 09:49:20;;;;;;;28.73;16.05;;;;;;;;;;5104400;28;20035;-68
2022/03/25 09:51:46;;;;;;;33.83;18.10;;;;;;;;;;5103021;28;20519;-66
2022/03/25 09:54:16;;;;;;;28.33;15.98;;;;;;;;;;5087064;28;20111;-66
2022/03/25 09:56:42;;;;;;;23.58;14.75;;;;;;;;;;5094738;28;20040;-66
2022/03/25 09:59:09;;;;;;;26.23;15.45;;;;;;;;;;5096851;28;20051;-66
2022/03/25 10:01:35;;;;;;;24.77;14.27;;;;;;;;;;5099284;28;20107;-66
2022/03/25 10:04:02;;;;;;;23.38;14.15;;;;;;;;;;5087896;28;20055;-66
2022/03/25 10:06:28;;;;;;;25.10;15.18;;;;;;;;;;5082894;28;20156;-66
2022/03/25 10:08:56;;;;;;;30.40;16.20;;;;;;;;;;5103708;28;20111;-67
2022/03/25 10:11:30;;;;;;;24.17;15.50;;;;;;;;;;5095755;28;20056;-67
2022/03/25 10:14:15;;;;;;;27.98;16.20;;;;;;;;;;5082701;28;20095;-66
2022/03/25 10:16:42;;;;;;;25.08;15.27;;;;;;;;;;5085198;28;20051;-67
2022/03/25 10:19:12;;;;;;;29.35;16.13;;;;;;;;;;5103853;28;20063;-66
2022/03/25 10:21:54;;;;;;;34.28;17.23;;;;;;;;;;5102339;28;20054;-66
2022/03/25 10:24:39;;;;;;;34.35;18.05;;;;;;;;;;5103960;28;20048;-66
2022/03/25 10:27:06;;;;;;;36.92;19.70;;;;;;;;;;5095792;28;20582;-67
2022/03/25 10:29:32;;;;;;;34.58;18.13;;;;;;;;;;5103751;28;20051;-66
2022/03/25 10:32:09;;;;;;;33.25;17.70;;;;;;;;;;5103965;28;20072;-68
2022/03/25 10:34:39;;;;;;;36.10;18.52;;;;;;;;;;5103920;28;20040;-67
2022/03/25 10:37:06;;;;;;;30.08;17.55;;;;;;;;;;5103292;28;20044;-68
2022/03/25 10:39:33;;;;;;;30.40;18.58;;;;;;;;;;5103498;28;20173;-67
2022/03/25 10:42:03;;;;;;;33.50;16.63;;;;;;;;;;5103801;28;20147;-68
2022/03/25 10:44:37;;;;;;;28.52;16.75;;;;;;;;;;5102876;28;20310;-67
2022/03/25 10:47:31;;;;;;;36.53;18.48;;;;;;;;;;5103008;28;20048;-68
2022/03/25 10:50:12;;;;;;;30.02;16.70;;;;;;;;;;5084130;28;20053;-67
2022/03/25 10:52:38;;;;;;;28.92;16.63;;;;;;;;;;5099750;28;20036;-68
2022/03/25 10:55:34;;;;;;;30.02;15.65;;;;;;;;;;5103721;28;20101;-67
2022/03/25 10:58:00;;;;;;;34.60;18.23;;;;;;;;;;5060135;28;20485;-68
2022/03/25 11:00:27;;;;;;;35.58;18.35;;;;;;;;;;5060340;28;20132;-68
2022/03/25 11:02:53;;;;;;;30.67;16.45;;;;;;;;;;5060039;28;20049;-68
2022/03/25 11:05:20;;;;;;;34.35;18.50;;;;;;;;;;5058715;28;20045;-69
2022/03/25 11:07:48;;;;;;;34.55;19.70;;;;;;;;;;5059889;28;20112;-68
2022/03/25 11:10:15;;;;;;;37.40;20.10;;;;;;;;;;5059740;28;20044;-72
2022/03/25 11:12:48;;;;;;;36.70;20.27;;;;;;;;;;5077255;28;20167;-67
2022/03/25 11:15:16;;;;;;;37.00;20.38;;;;;;;;;;5060514;28;20179;-66
2022/03/25 11:17:42;;;;;;;;;;;;;;;;;;5061016;28;20561;-68
2022/03/25 11:20:10;;;;;;;36.42;19.45;;;;;;;;;;5059215;28;19928;-70
2022/03/25 11:22:38;;;;;;;36.30;19.73;;;;;;;;;;5076866;28;20104;-70
2022/03/25 11:25:04;;;;;;;;;;;;;;;;;;5063462;28;20075;-67
2022/03/25 11:27:34;;;;;;;29.48;16.95;;;;;;;;;;5064230;28;19921;-64
2022/03/25 11:30:05;;;;;;;31.25;16.23;;;;;;;;;;5053788;28;20068;-75
2022/03/25 11:32:31;;;;;;;32.33;15.25;;;;;;;;;;5022549;28;20080;-78
2022/03/25 11:34:57;;;;;;;29.90;15.05;;;;;;;;;;5091174;28;20052;-73
2022/03/25 11:37:31;;;;;;;26.27;13.82;;;;;;;;;;5096032;28;20081;-71
2022/03/25 11:40:16;;;;;;;25.50;14.63;;;;;;;;;;5093656;28;20651;-74
2022/03/25 11:42:42;;;;;;;30.15;15.93;;;;;;;;;;5101125;28;20140;-74
2022/03/25 11:45:24;;;;;;;27.83;14.68;;;;;;;;;;5098102;28;20048;-67
2022/03/25 11:48:00;;;;;;;28.85;14.35;;;;;;;;;;5097526;28;20056;-69
2022/03/25 11:50:30;;;;;;;26.40;16.15;;;;;;;;;;5098893;28;20036;-65
2022/03/25 11:52:57;;;;;;;26.20;13.77;;;;;;;;;;5090294;28;20050;-65
2022/03/25 11:55:23;;;;;;;26.00;13.60;;;;;;;;;;5086982;28;20044;-64
2022/03/25 11:57:50;;;;;;;21.98;13.48;;;;;;;;;;5101258;28;20082;-71
2022/03/25 12:00:26;;;;;;;17.80;11.73;;;;;;;;;;5105869;28;20048;-70
2022/03/25 12:03:02;;;;;;;24.10;11.80;;;;;;;;;;5102644;28;20054;-68
2022/03/25 12:05:29;;;;;;;20.63;12.15;;;;;;;;;;5106549;28;20458;-67
2022/03/25 12:08:14;;;;;;;20.40;12.32;;;;;;;;;;5105366;28;20039;-66
2022/03/25 12:10:46;;;;;;;19.27;11.45;;;;;;;;;;5103288;28;20101;-69
2022/03/25 12:13:13;;;;;;;20.08;11.05;;;;;;;;;;5104543;28;20045;-68
2022/03/25 12:15:39;;;;;;;17.63;10.23;;;;;;;;;;5098971;28;20372;-68
2022/03/25 12:18:31;;;;;;;19.27;11.85;;;;;;;;;;5092362;28;20412;-68
2022/03/25 12:20:58;;;;;;;19.40;11.43;;;;;;;;;;5104938;28;20052;-67
2022/03/25 12:23:24;;;;;;;18.40;11.00;;;;;;;;;;5105166;28;20191;-66
2022/03/25 12:25:50;;;;;;;21.23;15.68;;;;;;;;;;5103702;28;20115;-67
2022/03/25 12:28:23;;;;;;;27.67;14.70;;;;;;;;;;5101539;28;20043;-67
2022/03/25 12:30:50;;;;;;;18.48;14.07;;;;;;;;;;5102963;28;20040;-67
2022/03/25 12:33:19;;;;;;;32.30;17.67;;;;;;;;;;5094065;28;20067;-67
2022/03/25 12:35:45;;;;;;;25.65;18.02;;;;;;;;;;5103498;28;20115;-68
2022/03/25 12:38:19;;;;;;;25.13;16.58;;;;;;;;;;5097295;28;20082;-69
2022/03/25 12:40:45;;;;;;;27.58;18.50;;;;;;;;;;5096215;28;20044;-69
2022/03/25 12:43:12;;;;;;;28.10;18.47;;;;;;;;;;5085246;28;20553;-70
2022/03/25 12:45:40;;;;;;;28.30;18.80;;;;;;;;;;5094583;28;20287;-69
2022/03/25 12:48:10;;;;;;;33.85;21.63;;;;;;;;;;5092969;28;20294;-74
2022/03/25 12:50:37;;;;;;;30.98;19.55;;;;;;;;;;5104159;28;20367;-71
2022/03/25 12:53:05;;;;;;;32.15;18.77;;;;;;;;;;5094440;28;20750;-71
2022/03/25 12:55:34;;;;;;;28.23;18.40;;;;;;;;;;5099644;28;20050;-72
2022/03/25 12:58:10;;;;;;;27.85;18.88;;;;;;;;;;5086193;28;20040;-71
2022/03/25 13:00:41;;;;;;;28.08;18.42;;;;;;;;;;5103823;28;20048;-72
2022/03/25 13:03:07;;;;;;;29.73;19.42;;;;;;;;;;5104714;28;20134;-72
2022/03/25 13:05:34;;;;;;;28.58;18.73;;;;;;;;;;5105027;28;20409;-72
2022/03/25 13:08:00;;;;;;;28.10;18.13;;;;;;;;;;5104527;28;20047;-71
2022/03/25 13:10:28;;;;;;;24.25;17.50;;;;;;;;;;5105348;28;20086;-72
2022/03/25 13:12:55;;;;;;;25.38;17.42;;;;;;;;;;5092332;28;20036;-72
2022/03/25 13:15:26;;;;;;;23.13;15.18;;;;;;;;;;5083328;28;20587;-71
2022/03/25 13:17:56;;;;;;;22.70;17.00;;;;;;;;;;5084457;28;20044;-72
2022/03/25 13:20:30;;;;;;;25.63;15.73;;;;;;;;;;5083281;28;20056;-71
2022/03/25 13:23:02;;;;;;;25.52;15.98;;;;;;;;;;5083791;28;20127;-72
2022/03/25 13:25:38;;;;;;;24.30;16.65;;;;;;;;;;5092723;28;20105;-71
2022/03/25 13:28:24;;;;;;;26.38;15.00;;;;;;;;;;5104716;28;20044;-71
2022/03/25 13:30:51;;;;;;;26.83;14.00;;;;;;;;;;5103689;28;20065;-71
2022/03/25 13:33:19;;;;;;;21.45;13.52;;;;;;;;;;5103351;28;20048;-65
2022/03/25 13:35:45;;;;;;;;;;;;;;;;;;5104959;28;20103;-64
2022/03/25 13:38:13;;;;;;;24.27;13.80;;;;;;;;;;5103718;28;19920;-64
2022/03/25 13:40:39;;;;;;;23.48;13.18;;;;;;;;;;5104342;28;20036;-66
2022/03/25 13:43:06;;;;;;;20.50;13.00;;;;;;;;;;5104604;28;20058;-65
2022/03/25 13:45:32;;;;;;;;;;;;;;;;;;5103952;28;20333;-66
2022/03/25 13:48:06;;;;;;;24.08;13.55;;;;;;;;;;5103215;28;19920;-66
2022/03/25 13:50:32;;;;;;;21.35;14.60;;;;;;;;;;5104391;28;20067;-66
2022/03/25 13:53:13;;;;;;;24.75;16.13;;;;;;;;;;5100259;28;20044;-65
2022/03/25 13:55:42;;;;;;;28.08;16.73;;;;;;;;;;5084001;28;20040;-66
2022/03/25 13:58:13;;;;;;;25.58;16.70;;;;;;;;;;5082613;28;20127;-65
2022/03/25 14:00:40;;;;;;;28.52;17.40;;;;;;;;;;5083792;28;20037;-65
2022/03/25 14:03:06;;;;;;;33.40;20.33;;;;;;;;;;5083694;28;20424;-64
2022/03/25 14:05:36;;;;;;;29.05;18.95;;;;;;;;;;5084117;28;20044;-65
2022/03/25 14:08:03;;;;;;;34.47;22.17;;;;;;;;;;5083721;28;20051;-66
2022/03/25 14:10:29;;;;;;;;;;;;;;;;;;5083284;28;20044;-64
2022/03/25 14:13:01;;;;;;;35.55;22.30;;;;;;;;;;5083627;28;19928;-65
2022/03/25 14:15:28;;;;;;;33.33;21.70;;;;;;;;;;5091415;28;20052;-64
2022/03/25 14:17:55;;;;;;;29.45;20.40;;;;;;;;;;5104100;28;20051;-66
2022/03/25 14:20:22;;;;;;;32.55;22.38;;;;;;;;;;5101597;28;20042;-68